sensor_id;sensor_type;location;lat;lon;timestamp;temperature;humidity
65598;SHT31;52267;51.984;20.956;2023-01-26T00:01:21;0.99;87.12
65598;SHT31;52267;51.984;20.956;2023-01-26T00:03:53;1.00;87.10
65598;SHT31;52267;51.984;20.956;2023-01-26T00:06:21;1.01;87.10
65598;SHT31;52267;51.984;20.956;2023-01-26T00:08:53;1.01;87.10
65598;SHT31;52267;51.984;20.956;2023-01-26T00:11:24;1.03;87.10
65598;SHT31;52267;51.984;20.956;2023-01-26T00:13:57;1.05;87.10
65598;SHT31;52267;51.984;20.956;2023-01-26T00:16:26;1.08;87.06
65598;SHT31;52267;51.984;20.956;2023-01-26T00:18:54;1.09;87.08
65598;SHT31;52267;51.984;20.956;2023-01-26T00:21:21;1.11;87.05
65598;SHT31;52267;51.984;20.956;2023-01-26T00:23:50;1.13;87.00
65598;SHT31;52267;51.984;20.956;2023-01-26T00:26:19;1.08;87.03
65598;SHT31;52267;51.984;20.956;2023-01-26T00:28:49;1.06;87.09
65598;SHT31;52267;51.984;20.956;2023-01-26T00:31:24;1.05;87.13
65598;SHT31;52267;51.984;20.956;2023-01-26T00:33:53;1.05;87.11
65598;SHT31;52267;51.984;20.956;2023-01-26T00:36:21;1.03;87.16
65598;SHT31;52267;51.984;20.956;2023-01-26T00:38:49;1.00;87.20
65598;SHT31;52267;51.984;20.956;2023-01-26T00:41:16;1.02;87.27
65598;SHT31;52267;51.984;20.956;2023-01-26T00:44:02;1.03;87.24
65598;SHT31;52267;51.984;20.956;2023-01-26T00:46:29;1.05;87.22
65598;SHT31;52267;51.984;20.956;2023-01-26T00:48:56;1.06;87.20
65598;SHT31;52267;51.984;20.956;2023-01-26T00:51:25;1.07;87.19
65598;SHT31;52267;51.984;20.956;2023-01-26T00:53:53;1.05;87.19
65598;SHT31;52267;51.984;20.956;2023-01-26T00:56:20;1.04;87.23
65598;SHT31;52267;51.984;20.956;2023-01-26T00:58:47;1.08;87.22
65598;SHT31;52267;51.984;20.956;2023-01-26T01:01:14;1.08;87.20
65598;SHT31;52267;51.984;20.956;2023-01-26T01:03:41;1.00;87.32
65598;SHT31;52267;51.984;20.956;2023-01-26T01:06:08;0.97;87.42
65598;SHT31;52267;51.984;20.956;2023-01-26T01:08:35;1.00;87.42
65598;SHT31;52267;51.984;20.956;2023-01-26T01:11:03;1.00;87.45
65598;SHT31;52267;51.984;20.956;2023-01-26T01:13:33;1.00;87.50
65598;SHT31;52267;51.984;20.956;2023-01-26T01:16:05;0.99;87.50
65598;SHT31;52267;51.984;20.956;2023-01-26T01:18:34;1.00;87.54
65598;SHT31;52267;51.984;20.956;2023-01-26T01:21:08;1.04;87.51
65598;SHT31;52267;51.984;20.956;2023-01-26T01:23:37;1.02;87.46
65598;SHT31;52267;51.984;20.956;2023-01-26T01:26:05;1.03;87.50
65598;SHT31;52267;51.984;20.956;2023-01-26T01:28:33;1.02;87.51
65598;SHT31;52267;51.984;20.956;2023-01-26T01:31:03;1.01;87.52
65598;SHT31;52267;51.984;20.956;2023-01-26T01:33:32;1.06;87.49
65598;SHT31;52267;51.984;20.956;2023-01-26T01:35:59;1.07;87.47
65598;SHT31;52267;51.984;20.956;2023-01-26T01:38:29;1.04;87.47
65598;SHT31;52267;51.984;20.956;2023-01-26T01:40:56;1.01;87.54
65598;SHT31;52267;51.984;20.956;2023-01-26T01:43:24;0.99;87.60
65598;SHT31;52267;51.984;20.956;2023-01-26T01:45:52;0.97;87.64
65598;SHT31;52267;51.984;20.956;2023-01-26T01:48:28;0.98;87.68
65598;SHT31;52267;51.984;20.956;2023-01-26T01:51:03;0.98;87.65
65598;SHT31;52267;51.984;20.956;2023-01-26T01:53:35;0.94;87.70
65598;SHT31;52267;51.984;20.956;2023-01-26T01:56:09;0.94;87.74
65598;SHT31;52267;51.984;20.956;2023-01-26T01:58:44;0.94;87.80
65598;SHT31;52267;51.984;20.956;2023-01-26T02:01:12;0.90;87.88
65598;SHT31;52267;51.984;20.956;2023-01-26T02:03:39;0.91;87.90
65598;SHT31;52267;51.984;20.956;2023-01-26T02:06:15;0.91;87.85
65598;SHT31;52267;51.984;20.956;2023-01-26T02:08:48;0.88;87.91
65598;SHT31;52267;51.984;20.956;2023-01-26T02:11:26;0.90;87.97
65598;SHT31;52267;51.984;20.956;2023-01-26T02:14:07;0.90;88.00
65598;SHT31;52267;51.984;20.956;2023-01-26T02:16:39;0.91;88.00
65598;SHT31;52267;51.984;20.956;2023-01-26T02:19:09;0.90;87.99
65598;SHT31;52267;51.984;20.956;2023-01-26T02:21:45;0.90;88.02
65598;SHT31;52267;51.984;20.956;2023-01-26T02:24:21;0.93;88.01
65598;SHT31;52267;51.984;20.956;2023-01-26T02:26:53;0.93;87.98
65598;SHT31;52267;51.984;20.956;2023-01-26T02:29:20;0.92;87.94
65598;SHT31;52267;51.984;20.956;2023-01-26T02:31:48;0.90;87.96
65598;SHT31;52267;51.984;20.956;2023-01-26T02:34:15;0.90;88.03
65598;SHT31;52267;51.984;20.956;2023-01-26T02:36:42;0.90;88.09
65598;SHT31;52267;51.984;20.956;2023-01-26T02:42:18;0.86;88.22
65598;SHT31;52267;51.984;20.956;2023-01-26T02:45:04;0.88;88.20
65598;SHT31;52267;51.984;20.956;2023-01-26T02:47:32;0.89;88.20
65598;SHT31;52267;51.984;20.956;2023-01-26T02:49:59;0.93;88.15
65598;SHT31;52267;51.984;20.956;2023-01-26T02:52:27;0.97;88.10
65598;SHT31;52267;51.984;20.956;2023-01-26T02:54:58;0.98;88.03
65598;SHT31;52267;51.984;20.956;2023-01-26T02:57:44;0.98;88.05
65598;SHT31;52267;51.984;20.956;2023-01-26T03:00:13;0.98;88.04
65598;SHT31;52267;51.984;20.956;2023-01-26T03:02:48;1.01;88.10
65598;SHT31;52267;51.984;20.956;2023-01-26T03:05:18;1.03;88.03
65598;SHT31;52267;51.984;20.956;2023-01-26T03:07:45;1.02;88.00
65598;SHT31;52267;51.984;20.956;2023-01-26T03:10:13;1.02;88.00
65598;SHT31;52267;51.984;20.956;2023-01-26T03:12:41;1.05;88.00
65598;SHT31;52267;51.984;20.956;2023-01-26T03:15:09;1.05;87.95
65598;SHT31;52267;51.984;20.956;2023-01-26T03:18:03;1.08;87.98
65598;SHT31;52267;51.984;20.956;2023-01-26T03:20:51;1.08;87.92
65598;SHT31;52267;51.984;20.956;2023-01-26T03:23:36;1.11;87.94
65598;SHT31;52267;51.984;20.956;2023-01-26T03:26:22;1.10;87.90
65598;SHT31;52267;51.984;20.956;2023-01-26T03:29:08;1.08;87.90
65598;SHT31;52267;51.984;20.956;2023-01-26T03:31:35;1.11;87.91
65598;SHT31;52267;51.984;20.956;2023-01-26T03:34:02;1.13;87.86
65598;SHT31;52267;51.984;20.956;2023-01-26T03:36:29;1.12;87.84
65598;SHT31;52267;51.984;20.956;2023-01-26T03:38:56;1.15;87.84
65598;SHT31;52267;51.984;20.956;2023-01-26T03:41:23;1.18;87.80
65598;SHT31;52267;51.984;20.956;2023-01-26T03:44:09;1.18;87.78
65598;SHT31;52267;51.984;20.956;2023-01-26T03:46:54;1.13;87.81
65598;SHT31;52267;51.984;20.956;2023-01-26T03:49:40;1.09;87.86
65598;SHT31;52267;51.984;20.956;2023-01-26T03:52:25;1.08;87.91
65598;SHT31;52267;51.984;20.956;2023-01-26T03:55:10;1.08;87.91
65598;SHT31;52267;51.984;20.956;2023-01-26T03:57:57;1.11;87.91
65598;SHT31;52267;51.984;20.956;2023-01-26T04:00:24;1.08;87.93
65598;SHT31;52267;51.984;20.956;2023-01-26T04:02:51;1.08;87.94
65598;SHT31;52267;51.984;20.956;2023-01-26T04:05:37;1.08;87.96
65598;SHT31;52267;51.984;20.956;2023-01-26T04:08:22;1.07;87.98
65598;SHT31;52267;51.984;20.956;2023-01-26T04:10:50;1.02;88.06
65598;SHT31;52267;51.984;20.956;2023-01-26T04:13:17;1.02;88.13
65598;SHT31;52267;51.984;20.956;2023-01-26T04:16:04;0.98;88.14
65598;SHT31;52267;51.984;20.956;2023-01-26T04:18:51;0.98;88.20
65598;SHT31;52267;51.984;20.956;2023-01-26T04:21:39;0.99;88.20
65598;SHT31;52267;51.984;20.956;2023-01-26T04:24:06;0.98;88.25
65598;SHT31;52267;51.984;20.956;2023-01-26T04:26:40;0.96;88.30
65598;SHT31;52267;51.984;20.956;2023-01-26T04:29:10;0.98;88.30
65598;SHT31;52267;51.984;20.956;2023-01-26T04:31:40;0.99;88.28
65598;SHT31;52267;51.984;20.956;2023-01-26T04:34:12;1.02;88.23
65598;SHT31;52267;51.984;20.956;2023-01-26T04:36:41;1.03;88.20
65598;SHT31;52267;51.984;20.956;2023-01-26T04:39:08;1.05;88.19
65598;SHT31;52267;51.984;20.956;2023-01-26T04:41:36;1.09;88.14
65598;SHT31;52267;51.984;20.956;2023-01-26T04:44:03;1.08;88.10
65598;SHT31;52267;51.984;20.956;2023-01-26T04:46:30;1.12;88.10
65598;SHT31;52267;51.984;20.956;2023-01-26T04:48:58;1.14;88.07
65598;SHT31;52267;51.984;20.956;2023-01-26T04:51:25;1.15;88.07
65598;SHT31;52267;51.984;20.956;2023-01-26T04:53:53;1.13;88.07
65598;SHT31;52267;51.984;20.956;2023-01-26T04:56:22;1.10;88.12
65598;SHT31;52267;51.984;20.956;2023-01-26T04:58:57;1.09;88.16
65598;SHT31;52267;51.984;20.956;2023-01-26T05:01:36;1.05;88.20
65598;SHT31;52267;51.984;20.956;2023-01-26T05:04:04;0.99;88.29
65598;SHT31;52267;51.984;20.956;2023-01-26T05:06:32;0.95;88.38
65598;SHT31;52267;51.984;20.956;2023-01-26T05:08:59;0.93;88.38
65598;SHT31;52267;51.984;20.956;2023-01-26T05:11:26;0.90;88.41
65598;SHT31;52267;51.984;20.956;2023-01-26T05:13:53;0.88;88.52
65598;SHT31;52267;51.984;20.956;2023-01-26T05:16:20;0.86;88.54
65598;SHT31;52267;51.984;20.956;2023-01-26T05:18:47;0.89;88.51
65598;SHT31;52267;51.984;20.956;2023-01-26T05:21:14;0.91;88.46
65598;SHT31;52267;51.984;20.956;2023-01-26T05:23:42;0.90;88.46
65598;SHT31;52267;51.984;20.956;2023-01-26T05:26:09;0.83;88.59
65598;SHT31;52267;51.984;20.956;2023-01-26T05:28:36;0.77;88.70
65598;SHT31;52267;51.984;20.956;2023-01-26T05:31:03;0.77;88.66
65598;SHT31;52267;51.984;20.956;2023-01-26T05:33:30;0.79;88.58
65598;SHT31;52267;51.984;20.956;2023-01-26T05:36:01;0.80;88.43
65598;SHT31;52267;51.984;20.956;2023-01-26T05:38:31;0.83;88.34
65598;SHT31;52267;51.984;20.956;2023-01-26T05:40:59;0.84;88.29
65598;SHT31;52267;51.984;20.956;2023-01-26T05:43:26;0.82;88.26
65598;SHT31;52267;51.984;20.956;2023-01-26T05:45:53;0.82;88.24
65598;SHT31;52267;51.984;20.956;2023-01-26T05:48:20;0.83;88.14
65598;SHT31;52267;51.984;20.956;2023-01-26T05:50:47;0.84;88.11
65598;SHT31;52267;51.984;20.956;2023-01-26T05:53:14;0.83;88.15
65598;SHT31;52267;51.984;20.956;2023-01-26T05:55:42;0.78;88.08
65598;SHT31;52267;51.984;20.956;2023-01-26T05:58:09;0.77;88.04
65598;SHT31;52267;51.984;20.956;2023-01-26T06:00:36;0.72;88.06
65598;SHT31;52267;51.984;20.956;2023-01-26T06:03:03;0.70;88.04
65598;SHT31;52267;51.984;20.956;2023-01-26T06:05:31;0.72;88.03
65598;SHT31;52267;51.984;20.956;2023-01-26T06:07:58;0.69;88.00
65598;SHT31;52267;51.984;20.956;2023-01-26T06:10:25;0.71;88.00
65598;SHT31;52267;51.984;20.956;2023-01-26T06:12:52;0.73;88.00
65598;SHT31;52267;51.984;20.956;2023-01-26T06:15:19;0.74;87.96
65598;SHT31;52267;51.984;20.956;2023-01-26T06:17:46;0.76;87.90
65598;SHT31;52267;51.984;20.956;2023-01-26T06:20:13;0.76;87.83
65598;SHT31;52267;51.984;20.956;2023-01-26T06:22:40;0.72;87.81
65598;SHT31;52267;51.984;20.956;2023-01-26T06:25:07;0.71;87.73
65598;SHT31;52267;51.984;20.956;2023-01-26T06:27:34;0.71;87.70
65598;SHT31;52267;51.984;20.956;2023-01-26T06:30:02;0.71;87.70
65598;SHT31;52267;51.984;20.956;2023-01-26T06:32:30;0.67;87.67
65598;SHT31;52267;51.984;20.956;2023-01-26T06:34:57;0.70;87.71
65598;SHT31;52267;51.984;20.956;2023-01-26T06:37:24;0.67;87.65
65598;SHT31;52267;51.984;20.956;2023-01-26T06:39:51;0.68;87.62
65598;SHT31;52267;51.984;20.956;2023-01-26T06:42:18;0.71;87.63
65598;SHT31;52267;51.984;20.956;2023-01-26T06:44:45;0.72;87.60
65598;SHT31;52267;51.984;20.956;2023-01-26T06:47:12;0.71;87.54
65598;SHT31;52267;51.984;20.956;2023-01-26T06:49:40;0.70;87.50
65598;SHT31;52267;51.984;20.956;2023-01-26T06:54:57;0.69;87.38
65598;SHT31;52267;51.984;20.956;2023-01-26T06:57:26;0.67;87.24
65598;SHT31;52267;51.984;20.956;2023-01-26T06:59:53;0.63;87.07
65598;SHT31;52267;51.984;20.956;2023-01-26T07:02:22;0.63;87.09
65598;SHT31;52267;51.984;20.956;2023-01-26T07:04:50;0.63;87.05
65598;SHT31;52267;51.984;20.956;2023-01-26T07:07:18;0.63;86.83
65598;SHT31;52267;51.984;20.956;2023-01-26T07:09:45;0.61;86.50
65598;SHT31;52267;51.984;20.956;2023-01-26T07:12:12;0.59;85.98
65598;SHT31;52267;51.984;20.956;2023-01-26T07:14:39;0.60;86.03
65598;SHT31;52267;51.984;20.956;2023-01-26T07:17:06;0.60;85.93
65598;SHT31;52267;51.984;20.956;2023-01-26T07:19:33;0.59;85.93
65598;SHT31;52267;51.984;20.956;2023-01-26T07:22:00;0.56;85.12
65598;SHT31;52267;51.984;20.956;2023-01-26T07:24:28;0.58;85.13
65598;SHT31;52267;51.984;20.956;2023-01-26T07:26:55;0.58;85.23
65598;SHT31;52267;51.984;20.956;2023-01-26T07:29:23;0.59;84.79
65598;SHT31;52267;51.984;20.956;2023-01-26T07:31:50;0.61;85.01
65598;SHT31;52267;51.984;20.956;2023-01-26T07:34:18;0.65;85.19
65598;SHT31;52267;51.984;20.956;2023-01-26T07:36:45;0.63;84.89
65598;SHT31;52267;51.984;20.956;2023-01-26T07:39:12;0.65;84.78
65598;SHT31;52267;51.984;20.956;2023-01-26T07:41:39;0.68;85.04
65598;SHT31;52267;51.984;20.956;2023-01-26T07:44:09;0.68;84.71
65598;SHT31;52267;51.984;20.956;2023-01-26T07:46:36;0.70;84.64
65598;SHT31;52267;51.984;20.956;2023-01-26T07:49:04;0.73;84.63
65598;SHT31;52267;51.984;20.956;2023-01-26T07:51:31;0.76;84.85
65598;SHT31;52267;51.984;20.956;2023-01-26T07:53:58;0.75;84.76
65598;SHT31;52267;51.984;20.956;2023-01-26T07:56:25;0.74;84.48
65598;SHT31;52267;51.984;20.956;2023-01-26T07:58:53;0.75;84.30
65598;SHT31;52267;51.984;20.956;2023-01-26T08:01:20;0.77;84.18
65598;SHT31;52267;51.984;20.956;2023-01-26T08:03:49;0.76;84.11
65598;SHT31;52267;51.984;20.956;2023-01-26T08:06:18;0.71;83.53
65598;SHT31;52267;51.984;20.956;2023-01-26T08:08:47;0.73;84.08
65598;SHT31;52267;51.984;20.956;2023-01-26T08:11:19;0.74;83.84
65598;SHT31;52267;51.984;20.956;2023-01-26T08:13:48;0.76;83.86
65598;SHT31;52267;51.984;20.956;2023-01-26T08:16:16;0.71;83.37
65598;SHT31;52267;51.984;20.956;2023-01-26T08:18:44;0.71;83.77
65598;SHT31;52267;51.984;20.956;2023-01-26T08:21:13;0.68;83.37
65598;SHT31;52267;51.984;20.956;2023-01-26T08:23:46;0.69;83.46
65598;SHT31;52267;51.984;20.956;2023-01-26T08:26:18;0.69;83.39
65598;SHT31;52267;51.984;20.956;2023-01-26T08:28:46;0.70;83.48
65598;SHT31;52267;51.984;20.956;2023-01-26T08:31:15;0.71;83.62
65598;SHT31;52267;51.984;20.956;2023-01-26T08:33:46;0.74;83.59
65598;SHT31;52267;51.984;20.956;2023-01-26T08:36:16;0.75;83.58
65598;SHT31;52267;51.984;20.956;2023-01-26T08:38:44;0.75;83.45
65598;SHT31;52267;51.984;20.956;2023-01-26T08:41:11;0.77;83.33
65598;SHT31;52267;51.984;20.956;2023-01-26T08:43:38;0.82;83.61
65598;SHT31;52267;51.984;20.956;2023-01-26T08:46:06;0.79;83.16
65598;SHT31;52267;51.984;20.956;2023-01-26T08:48:33;0.78;83.10
65598;SHT31;52267;51.984;20.956;2023-01-26T08:51:01;0.80;83.28
65598;SHT31;52267;51.984;20.956;2023-01-26T08:53:30;0.82;83.37
65598;SHT31;52267;51.984;20.956;2023-01-26T08:56:02;0.83;83.09
65598;SHT31;52267;51.984;20.956;2023-01-26T08:58:32;0.81;82.82
65598;SHT31;52267;51.984;20.956;2023-01-26T09:01:13;0.82;82.86
65598;SHT31;52267;51.984;20.956;2023-01-26T09:03:42;0.86;82.95
65598;SHT31;52267;51.984;20.956;2023-01-26T09:06:11;0.85;82.71
65598;SHT31;52267;51.984;20.956;2023-01-26T09:08:40;0.85;82.54
65598;SHT31;52267;51.984;20.956;2023-01-26T09:11:07;0.88;82.48
65598;SHT31;52267;51.984;20.956;2023-01-26T09:13:35;0.88;82.57
65598;SHT31;52267;51.984;20.956;2023-01-26T09:16:04;0.90;82.49
65598;SHT31;52267;51.984;20.956;2023-01-26T09:18:34;0.91;82.14
65598;SHT31;52267;51.984;20.956;2023-01-26T09:21:04;0.95;82.56
65598;SHT31;52267;51.984;20.956;2023-01-26T09:23:33;0.99;82.33
65598;SHT31;52267;51.984;20.956;2023-01-26T09:26:01;0.98;82.10
65598;SHT31;52267;51.984;20.956;2023-01-26T09:28:29;0.97;81.79
65598;SHT31;52267;51.984;20.956;2023-01-26T09:30:56;0.93;81.27
65598;SHT31;52267;51.984;20.956;2023-01-26T09:33:23;0.98;82.00
65598;SHT31;52267;51.984;20.956;2023-01-26T09:35:52;0.98;81.91
65598;SHT31;52267;51.984;20.956;2023-01-26T09:38:19;0.94;80.97
65598;SHT31;52267;51.984;20.956;2023-01-26T09:43:56;0.98;81.73
65598;SHT31;52267;51.984;20.956;2023-01-26T09:46:35;0.98;81.87
65598;SHT31;52267;51.984;20.956;2023-01-26T09:52:05;1.05;81.71
65598;SHT31;52267;51.984;20.956;2023-01-26T09:54:52;1.07;81.83
65598;SHT31;52267;51.984;20.956;2023-01-26T09:57:28;1.09;81.86
65598;SHT31;52267;51.984;20.956;2023-01-26T10:03:08;1.07;80.93
65598;SHT31;52267;51.984;20.956;2023-01-26T10:08:55;1.11;81.71
65598;SHT31;52267;51.984;20.956;2023-01-26T10:11:28;1.15;81.66
65598;SHT31;52267;51.984;20.956;2023-01-26T10:14:02;1.13;81.48
65598;SHT31;52267;51.984;20.956;2023-01-26T10:16:41;1.15;81.45
65598;SHT31;52267;51.984;20.956;2023-01-26T10:19:55;1.15;81.17
65598;SHT31;52267;51.984;20.956;2023-01-26T10:22:05;1.15;80.80
65598;SHT31;52267;51.984;20.956;2023-01-26T10:24:43;1.13;81.00
65598;SHT31;52267;51.984;20.956;2023-01-26T10:27:15;1.13;81.08
65598;SHT31;52267;51.984;20.956;2023-01-26T10:29:42;1.11;80.72
65598;SHT31;52267;51.984;20.956;2023-01-26T10:32:11;1.11;80.53
65598;SHT31;52267;51.984;20.956;2023-01-26T10:34:47;1.10;80.61
65598;SHT31;52267;51.984;20.956;2023-01-26T10:37:27;1.09;80.63
65598;SHT31;52267;51.984;20.956;2023-01-26T10:39:56;1.08;80.75
65598;SHT31;52267;51.984;20.956;2023-01-26T10:42:35;1.10;80.27
65598;SHT31;52267;51.984;20.956;2023-01-26T10:45:04;1.14;80.24
65598;SHT31;52267;51.984;20.956;2023-01-26T10:48:03;1.21;80.63
65598;SHT31;52267;51.984;20.956;2023-01-26T10:50:42;1.26;80.83
65598;SHT31;52267;51.984;20.956;2023-01-26T10:53:16;1.25;80.33
65598;SHT31;52267;51.984;20.956;2023-01-26T10:58:51;1.23;79.60
65598;SHT31;52267;51.984;20.956;2023-01-26T11:01:22;1.22;79.72
65598;SHT31;52267;51.984;20.956;2023-01-26T11:04:06;1.23;79.49
65598;SHT31;52267;51.984;20.956;2023-01-26T11:06:37;1.24;79.48
65598;SHT31;52267;51.984;20.956;2023-01-26T11:09:08;1.23;79.29
65598;SHT31;52267;51.984;20.956;2023-01-26T11:11:40;1.26;79.80
65598;SHT31;52267;51.984;20.956;2023-01-26T11:14:14;1.31;80.06
65598;SHT31;52267;51.984;20.956;2023-01-26T11:17:08;1.27;79.33
65598;SHT31;52267;51.984;20.956;2023-01-26T11:19:59;1.27;79.70
65598;SHT31;52267;51.984;20.956;2023-01-26T11:26:11;1.33;79.62
65598;SHT31;52267;51.984;20.956;2023-01-26T11:28:57;1.38;79.71
65598;SHT31;52267;51.984;20.956;2023-01-26T11:37:44;1.50;79.26
65598;SHT31;52267;51.984;20.956;2023-01-26T11:40:53;1.53;79.47
65598;SHT31;52267;51.984;20.956;2023-01-26T11:43:50;1.54;79.65
65598;SHT31;52267;51.984;20.956;2023-01-26T11:46:57;1.57;79.03
65598;SHT31;52267;51.984;20.956;2023-01-26T11:52:15;1.56;79.80
65598;SHT31;52267;51.984;20.956;2023-01-26T12:00:49;1.54;79.23
65598;SHT31;52267;51.984;20.956;2023-01-26T12:03:22;1.52;79.50
65598;SHT31;52267;51.984;20.956;2023-01-26T12:05:57;1.50;79.88
65598;SHT31;52267;51.984;20.956;2023-01-26T12:08:37;1.50;79.74
65598;SHT31;52267;51.984;20.956;2023-01-26T12:11:11;1.47;79.78
65598;SHT31;52267;51.984;20.956;2023-01-26T12:13:51;1.45;79.97
65598;SHT31;52267;51.984;20.956;2023-01-26T12:16:32;1.49;80.02
65598;SHT31;52267;51.984;20.956;2023-01-26T12:19:10;1.53;80.07
65598;SHT31;52267;51.984;20.956;2023-01-26T12:22:10;1.52;79.62
65598;SHT31;52267;51.984;20.956;2023-01-26T12:24:46;1.52;79.73
65598;SHT31;52267;51.984;20.956;2023-01-26T12:27:34;1.52;80.15
65598;SHT31;52267;51.984;20.956;2023-01-26T12:30:21;1.50;79.81
65598;SHT31;52267;51.984;20.956;2023-01-26T12:33:10;1.52;79.90
65598;SHT31;52267;51.984;20.956;2023-01-26T12:38:49;1.49;79.31
65598;SHT31;52267;51.984;20.956;2023-01-26T12:41:29;1.50;79.79
65598;SHT31;52267;51.984;20.956;2023-01-26T12:44:32;1.46;79.34
65598;SHT31;52267;51.984;20.956;2023-01-26T12:47:20;1.48;79.84
65598;SHT31;52267;51.984;20.956;2023-01-26T12:52:47;1.44;79.64
65598;SHT31;52267;51.984;20.956;2023-01-26T12:58:02;1.36;79.00
65598;SHT31;52267;51.984;20.956;2023-01-26T13:00:37;1.37;79.41
65598;SHT31;52267;51.984;20.956;2023-01-26T13:03:13;1.32;79.57
65598;SHT31;52267;51.984;20.956;2023-01-26T13:05:55;1.26;78.96
65598;SHT31;52267;51.984;20.956;2023-01-26T13:10:58;1.28;79.33
65598;SHT31;52267;51.984;20.956;2023-01-26T13:13:53;1.30;79.28
65598;SHT31;52267;51.984;20.956;2023-01-26T13:16:29;1.34;79.48
65598;SHT31;52267;51.984;20.956;2023-01-26T13:18:59;1.34;79.66
65598;SHT31;52267;51.984;20.956;2023-01-26T13:27:17;1.26;79.57
65598;SHT31;52267;51.984;20.956;2023-01-26T13:29:54;1.25;79.20
65598;SHT31;52267;51.984;20.956;2023-01-26T13:34:52;1.38;79.75
65598;SHT31;52267;51.984;20.956;2023-01-26T13:40:41;1.38;79.64
65598;SHT31;52267;51.984;20.956;2023-01-26T13:45:41;1.32;79.66
65598;SHT31;52267;51.984;20.956;2023-01-26T13:48:35;1.33;79.66
65598;SHT31;52267;51.984;20.956;2023-01-26T13:51:21;1.35;79.70
65598;SHT31;52267;51.984;20.956;2023-01-26T13:53:59;1.34;79.49
65598;SHT31;52267;51.984;20.956;2023-01-26T13:56:35;1.28;79.00
65598;SHT31;52267;51.984;20.956;2023-01-26T13:59:15;1.25;79.29
65598;SHT31;52267;51.984;20.956;2023-01-26T14:01:45;1.21;78.82
65598;SHT31;52267;51.984;20.956;2023-01-26T14:06:51;1.24;79.68
65598;SHT31;52267;51.984;20.956;2023-01-26T14:09:29;1.22;79.38
65598;SHT31;52267;51.984;20.956;2023-01-26T14:12:05;1.24;79.56
65598;SHT31;52267;51.984;20.956;2023-01-26T14:14:33;1.23;79.76
65598;SHT31;52267;51.984;20.956;2023-01-26T14:17:22;1.21;79.46
65598;SHT31;52267;51.984;20.956;2023-01-26T14:19:54;1.15;79.09
65598;SHT31;52267;51.984;20.956;2023-01-26T14:22:24;1.12;79.32
65598;SHT31;52267;51.984;20.956;2023-01-26T14:24:52;1.11;79.63
65598;SHT31;52267;51.984;20.956;2023-01-26T14:33:16;1.10;79.46
65598;SHT31;52267;51.984;20.956;2023-01-26T14:35:53;1.10;79.74
65598;SHT31;52267;51.984;20.956;2023-01-26T14:38:44;1.11;79.83
65598;SHT31;52267;51.984;20.956;2023-01-26T14:41:26;1.12;80.11
65598;SHT31;52267;51.984;20.956;2023-01-26T14:44:02;1.14;80.17
65598;SHT31;52267;51.984;20.956;2023-01-26T14:49:37;1.09;79.73
65598;SHT31;52267;51.984;20.956;2023-01-26T14:52:16;1.07;79.84
65598;SHT31;52267;51.984;20.956;2023-01-26T14:55:13;1.06;79.88
65598;SHT31;52267;51.984;20.956;2023-01-26T14:57:46;1.06;79.89
65598;SHT31;52267;51.984;20.956;2023-01-26T15:00:33;1.04;79.99
65598;SHT31;52267;51.984;20.956;2023-01-26T15:03:21;1.00;79.87
65598;SHT31;52267;51.984;20.956;2023-01-26T15:06:02;0.98;79.83
65598;SHT31;52267;51.984;20.956;2023-01-26T15:08:57;0.97;79.94
65598;SHT31;52267;51.984;20.956;2023-01-26T15:11:34;0.96;80.01
65598;SHT31;52267;51.984;20.956;2023-01-26T15:14:33;0.95;80.06
65598;SHT31;52267;51.984;20.956;2023-01-26T15:17:04;0.95;80.15
65598;SHT31;52267;51.984;20.956;2023-01-26T15:19:37;0.96;80.39
65598;SHT31;52267;51.984;20.956;2023-01-26T15:22:17;0.97;80.55
65598;SHT31;52267;51.984;20.956;2023-01-26T15:24:57;0.95;80.23
65598;SHT31;52267;51.984;20.956;2023-01-26T15:27:31;0.92;80.08
65598;SHT31;52267;51.984;20.956;2023-01-26T15:30:01;0.89;79.94
65598;SHT31;52267;51.984;20.956;2023-01-26T15:32:31;0.91;80.21
65598;SHT31;52267;51.984;20.956;2023-01-26T15:35:19;0.91;80.29
65598;SHT31;52267;51.984;20.956;2023-01-26T15:37:48;0.90;80.26
65598;SHT31;52267;51.984;20.956;2023-01-26T15:40:28;0.93;80.50
65598;SHT31;52267;51.984;20.956;2023-01-26T15:43:16;0.94;80.55
65598;SHT31;52267;51.984;20.956;2023-01-26T15:45:54;0.96;80.72
65598;SHT31;52267;51.984;20.956;2023-01-26T15:48:24;0.94;80.70
65598;SHT31;52267;51.984;20.956;2023-01-26T15:50:52;0.96;80.73
65598;SHT31;52267;51.984;20.956;2023-01-26T15:53:19;0.97;80.81
65598;SHT31;52267;51.984;20.956;2023-01-26T15:55:48;1.01;80.83
65598;SHT31;52267;51.984;20.956;2023-01-26T15:58:21;1.00;80.84
65598;SHT31;52267;51.984;20.956;2023-01-26T16:00:49;0.98;80.75
65598;SHT31;52267;51.984;20.956;2023-01-26T16:03:19;0.99;80.75
65598;SHT31;52267;51.984;20.956;2023-01-26T16:05:47;0.98;80.84
65598;SHT31;52267;51.984;20.956;2023-01-26T16:08:16;1.00;80.87
65598;SHT31;52267;51.984;20.956;2023-01-26T16:10:45;0.98;80.82
65598;SHT31;52267;51.984;20.956;2023-01-26T16:13:13;0.95;80.73
65598;SHT31;52267;51.984;20.956;2023-01-26T16:15:44;0.93;80.90
65598;SHT31;52267;51.984;20.956;2023-01-26T16:18:19;0.93;80.90
65598;SHT31;52267;51.984;20.956;2023-01-26T16:20:46;0.93;80.93
65598;SHT31;52267;51.984;20.956;2023-01-26T16:23:23;0.93;80.90
65598;SHT31;52267;51.984;20.956;2023-01-26T16:25:54;0.92;80.86
65598;SHT31;52267;51.984;20.956;2023-01-26T16:28:21;0.90;80.85
65598;SHT31;52267;51.984;20.956;2023-01-26T16:30:49;0.88;80.85
65598;SHT31;52267;51.984;20.956;2023-01-26T16:33:18;0.87;80.92
65598;SHT31;52267;51.984;20.956;2023-01-26T16:35:49;0.84;80.93
65598;SHT31;52267;51.984;20.956;2023-01-26T16:38:17;0.88;81.17
65598;SHT31;52267;51.984;20.956;2023-01-26T16:40:46;0.86;81.17
65598;SHT31;52267;51.984;20.956;2023-01-26T16:43:16;0.85;81.24
65598;SHT31;52267;51.984;20.956;2023-01-26T16:45:47;0.85;81.38
65598;SHT31;52267;51.984;20.956;2023-01-26T16:48:15;0.84;81.42
65598;SHT31;52267;51.984;20.956;2023-01-26T16:50:43;0.78;80.96
65598;SHT31;52267;51.984;20.956;2023-01-26T16:53:27;0.73;80.94
65598;SHT31;52267;51.984;20.956;2023-01-26T16:55:58;0.75;81.07
65598;SHT31;52267;51.984;20.956;2023-01-26T16:58:26;0.73;81.20
65598;SHT31;52267;51.984;20.956;2023-01-26T17:00:54;0.71;81.29
65598;SHT31;52267;51.984;20.956;2023-01-26T17:03:22;0.69;81.26
65598;SHT31;52267;51.984;20.956;2023-01-26T17:05:51;0.65;80.90
65598;SHT31;52267;51.984;20.956;2023-01-26T17:08:18;0.62;80.83
65598;SHT31;52267;51.984;20.956;2023-01-26T17:10:45;0.60;80.95
65598;SHT31;52267;51.984;20.956;2023-01-26T17:13:13;0.63;81.11
65598;SHT31;52267;51.984;20.956;2023-01-26T17:15:42;0.61;80.99
65598;SHT31;52267;51.984;20.956;2023-01-26T17:18:12;0.64;81.21
65598;SHT31;52267;51.984;20.956;2023-01-26T17:20:39;0.61;81.11